Time;durP1;ratioP1;P1;durP2;ratioP2;P2;SDS_P1;SDS_P2;PMS_P1;PMS_P2;Temp;Humidity;BMP_temperature;BMP_pressure;BME280_temperature;BME280_humidity;BME280_pressure;Samples;Min_cycle;Max_cycle;Signal;HPM_P1;HPM_P2
2022/05/22 00:01:40;;;;;;;2.00;1.60;;;13.90;65.70;;;;;;975408;146;28112;-72
2022/05/22 00:04:06;;;;;;;1.50;1.40;;;13.80;65.80;;;;;;974368;146;27301;-72
2022/05/22 00:06:32;;;;;;;1.70;1.20;;;13.80;66.00;;;;;;972396;146;27685;-73
2022/05/22 00:08:59;;;;;;;2.50;1.50;;;13.80;66.10;;;;;;972842;146;27276;-73
2022/05/22 00:11:25;;;;;;;1.60;1.50;;;13.70;66.30;;;;;;976804;144;27289;-74
2022/05/22 00:13:52;;;;;;;3.17;1.63;;;13.70;66.40;;;;;;973026;146;27304;-72
2022/05/22 00:16:37;;;;;;;1.93;1.60;;;13.70;66.60;;;;;;972741;146;27303;-72
2022/05/22 00:19:06;;;;;;;3.20;1.70;;;13.70;66.90;;;;;;974490;146;27676;-71
2022/05/22 00:21:33;;;;;;;1.87;1.43;;;13.60;66.70;;;;;;975030;146;27293;-73
2022/05/22 00:23:59;;;;;;;1.60;1.50;;;13.60;66.90;;;;;;975525;146;27316;-73
2022/05/22 00:26:26;;;;;;;1.83;1.47;;;13.60;67.10;;;;;;974744;146;27316;-72
2022/05/22 00:28:52;;;;;;;3.17;1.50;;;13.60;67.20;;;;;;975314;146;27337;-73
2022/05/22 00:31:19;;;;;;;1.70;1.60;;;13.50;67.50;;;;;;974380;146;27387;-73
2022/05/22 00:33:46;;;;;;;2.30;1.70;;;13.50;67.80;;;;;;975774;146;27292;-73
2022/05/22 00:36:12;;;;;;;1.87;1.77;;;13.50;67.80;;;;;;973266;146;27322;-73
2022/05/22 00:38:39;;;;;;;3.07;2.13;;;13.50;68.00;;;;;;975969;146;27323;-72
2022/05/22 00:41:06;;;;;;;1.53;1.43;;;13.50;68.00;;;;;;974837;146;27301;-73
2022/05/22 00:43:32;;;;;;;2.77;2.00;;;13.40;68.10;;;;;;977049;145;27393;-72
2022/05/22 00:45:59;;;;;;;2.27;2.03;;;13.40;68.20;;;;;;974749;146;27360;-72
2022/05/22 00:48:25;;;;;;;2.07;1.97;;;13.40;68.40;;;;;;975389;146;27247;-73
2022/05/22 00:50:52;;;;;;;1.80;1.70;;;13.40;68.70;;;;;;973395;146;27447;-73
2022/05/22 00:53:18;;;;;;;1.67;1.57;;;13.30;68.90;;;;;;976409;146;27305;-72
2022/05/22 00:55:45;;;;;;;2.13;1.80;;;13.30;69.00;;;;;;975083;146;27336;-72
2022/05/22 00:58:11;;;;;;;2.43;2.10;;;13.30;69.20;;;;;;974177;146;27305;-72
2022/05/22 01:00:38;;;;;;;2.23;1.97;;;13.30;69.50;;;;;;973762;146;27678;-73
2022/05/22 01:05:52;;;;;;;2.77;1.63;;;13.30;70.60;;;;;;972747;146;27782;-72
2022/05/22 01:08:19;;;;;;;2.20;2.00;;;13.30;69.80;;;;;;976193;145;27349;-72
2022/05/22 01:10:45;;;;;;;2.33;1.90;;;13.30;70.00;;;;;;971787;146;27261;-72
2022/05/22 01:13:12;;;;;;;2.37;1.90;;;13.30;70.30;;;;;;974866;146;27271;-73
2022/05/22 01:15:41;;;;;;;2.10;1.90;;;13.20;70.30;;;;;;975364;146;27312;-73
2022/05/22 01:18:08;;;;;;;3.37;2.23;;;13.20;70.20;;;;;;975952;144;28345;-72
2022/05/22 01:20:34;;;;;;;3.50;2.17;;;13.20;70.50;;;;;;975023;146;27293;-72
2022/05/22 01:23:01;;;;;;;2.10;1.90;;;13.20;70.60;;;;;;973888;144;27383;-72
2022/05/22 01:25:27;;;;;;;2.17;1.93;;;13.20;70.70;;;;;;973958;146;27281;-73
2022/05/22 01:27:54;;;;;;;2.10;1.87;;;13.20;70.70;;;;;;975587;145;28010;-73
2022/05/22 01:30:21;;;;;;;2.00;1.77;;;13.10;70.80;;;;;;974750;146;27405;-72
2022/05/22 01:32:47;;;;;;;2.17;1.93;;;13.10;71.00;;;;;;972427;144;27257;-72
2022/05/22 01:35:15;;;;;;;2.70;2.17;;;13.20;71.30;;;;;;975492;146;27272;-72
2022/05/22 01:37:40;;;;;;;2.57;2.37;;;13.20;71.50;;;;;;975572;144;27394;-72
2022/05/22 01:40:08;;;;;;;2.13;1.93;;;13.10;71.70;;;;;;972517;146;27375;-73
2022/05/22 01:42:34;;;;;;;2.07;1.60;;;13.10;71.90;;;;;;974130;146;27422;-72
2022/05/22 01:45:00;;;;;;;1.80;1.70;;;13.10;72.00;;;;;;975840;144;27324;-72
2022/05/22 01:47:27;;;;;;;2.00;1.70;;;13.10;72.00;;;;;;974845;146;27272;-72
2022/05/22 01:49:54;;;;;;;2.17;1.73;;;13.20;72.00;;;;;;976748;145;27503;-72
2022/05/22 01:52:20;;;;;;;2.80;2.00;;;13.10;72.00;;;;;;973905;146;27365;-72
2022/05/22 01:54:47;;;;;;;2.73;2.10;;;13.20;72.10;;;;;;973489;144;27431;-74
2022/05/22 01:57:13;;;;;;;1.70;1.60;;;13.20;72.10;;;;;;975696;145;27323;-72
2022/05/22 01:59:40;;;;;;;2.33;1.90;;;13.10;72.30;;;;;;972726;146;27383;-73
2022/05/22 02:02:07;;;;;;;2.53;1.87;;;13.10;72.30;;;;;;975703;146;27301;-72
2022/05/22 02:04:33;;;;;;;2.03;1.73;;;13.10;72.40;;;;;;975964;146;27238;-73
2022/05/22 02:09:45;;;;;;;2.63;1.50;;;13.10;72.80;;;;;;977412;144;27860;-73
2022/05/22 02:12:11;;;;;;;3.03;1.63;;;13.10;72.90;;;;;;973591;146;27453;-72
2022/05/22 02:14:38;;;;;;;2.20;2.00;;;13.10;73.30;;;;;;973776;144;27269;-73
2022/05/22 02:17:04;;;;;;;4.27;1.83;;;13.10;73.50;;;;;;974787;145;27272;-73
2022/05/22 02:19:31;;;;;;;1.70;1.60;;;13.10;73.80;;;;;;977555;144;27249;-73
2022/05/22 02:21:57;;;;;;;2.90;1.80;;;13.20;74.00;;;;;;974493;146;27276;-74
2022/05/22 02:24:24;;;;;;;3.43;1.63;;;13.20;74.10;;;;;;974173;144;27338;-73
2022/05/22 02:26:51;;;;;;;3.50;2.03;;;13.30;74.30;;;;;;975819;146;28600;-73
2022/05/22 02:29:17;;;;;;;2.10;1.90;;;13.30;74.50;;;;;;975046;143;27292;-74
2022/05/22 02:31:44;;;;;;;2.20;1.93;;;13.40;74.50;;;;;;974700;145;27321;-74
2022/05/22 02:34:10;;;;;;;2.77;1.80;;;13.40;74.40;;;;;;974804;144;27399;-74
2022/05/22 02:36:37;;;;;;;2.20;1.97;;;13.50;74.50;;;;;;974993;146;27438;-74
2022/05/22 02:39:04;;;;;;;2.07;1.80;;;13.50;74.50;;;;;;974663;146;27321;-74
2022/05/22 02:41:30;;;;;;;1.87;1.77;;;13.60;74.50;;;;;;974320;146;27384;-74
2022/05/22 02:43:57;;;;;;;2.27;2.03;;;13.60;74.50;;;;;;975418;145;27338;-75
2022/05/22 02:46:24;;;;;;;2.63;2.00;;;13.70;74.60;;;;;;973702;146;27395;-74
2022/05/22 02:48:50;;;;;;;2.17;1.97;;;13.70;74.60;;;;;;974043;144;27430;-75
2022/05/22 02:51:17;;;;;;;2.00;1.80;;;13.70;74.60;;;;;;975465;143;27382;-74
2022/05/22 02:53:43;;;;;;;1.80;1.70;;;13.80;74.70;;;;;;972387;144;27269;-74
2022/05/22 02:56:10;;;;;;;1.80;1.70;;;13.80;74.80;;;;;;978103;144;27339;-74
2022/05/22 02:58:36;;;;;;;2.20;2.00;;;13.80;74.70;;;;;;985901;143;27276;-74
2022/05/22 03:01:03;;;;;;;2.10;1.90;;;13.80;74.70;;;;;;985978;144;27323;-74
2022/05/22 03:03:29;;;;;;;2.10;1.87;;;13.90;74.70;;;;;;985517;144;27319;-74
2022/05/22 03:08:41;;;;;;;4.57;2.13;;;13.90;74.70;;;;;;984262;144;27502;-73
2022/05/22 03:11:07;;;;;;;3.83;2.73;;;13.90;74.40;;;;;;984713;144;27843;-73
2022/05/22 03:13:34;;;;;;;4.07;2.17;;;13.90;74.50;;;;;;984078;144;27397;-74
2022/05/22 03:16:01;;;;;;;2.63;1.70;;;13.80;74.20;;;;;;985151;144;27446;-73
2022/05/22 03:18:27;;;;;;;3.17;2.33;;;13.80;74.00;;;;;;985861;144;27439;-73
2022/05/22 03:20:54;;;;;;;2.00;1.90;;;13.70;74.00;;;;;;984168;144;27361;-72
2022/05/22 03:23:20;;;;;;;1.93;1.80;;;13.70;74.10;;;;;;983307;142;27307;-73
2022/05/22 03:25:47;;;;;;;4.00;2.10;;;13.70;74.10;;;;;;984306;144;27316;-73
2022/05/22 03:28:14;;;;;;;1.73;1.63;;;13.60;74.20;;;;;;983189;144;27252;-74
2022/05/22 03:30:40;;;;;;;2.47;2.17;;;13.50;74.30;;;;;;983853;144;27310;-73
2022/05/22 03:33:07;;;;;;;2.43;1.80;;;13.50;74.60;;;;;;986590;142;28453;-73
2022/05/22 03:35:33;;;;;;;2.10;1.90;;;13.40;74.70;;;;;;984684;144;27352;-73
2022/05/22 03:38:00;;;;;;;3.37;1.73;;;13.30;75.10;;;;;;984915;143;27291;-73
2022/05/22 03:40:27;;;;;;;2.33;2.13;;;13.30;75.20;;;;;;984561;144;27300;-74
2022/05/22 03:42:53;;;;;;;3.20;2.90;;;13.30;75.90;;;;;;986005;144;27392;-73
2022/05/22 03:45:20;;;;;;;3.53;3.23;;;13.30;76.40;;;;;;986249;144;27338;-73
2022/05/22 03:47:46;;;;;;;4.23;3.30;;;13.30;76.80;;;;;;986385;143;27273;-73
2022/05/22 03:50:13;;;;;;;4.63;2.93;;;13.30;77.30;;;;;;986180;144;27397;-73
2022/05/22 03:52:40;;;;;;;3.27;2.83;;;13.30;77.50;;;;;;985851;142;27439;-74
2022/05/22 03:55:07;;;;;;;5.13;3.00;;;13.30;77.80;;;;;;986517;144;27309;-73
2022/05/22 03:57:33;;;;;;;4.63;2.63;;;13.30;78.20;;;;;;986326;144;27513;-73
2022/05/22 03:59:59;;;;;;;2.47;2.23;;;13.40;78.40;;;;;;986230;144;27694;-73
2022/05/22 04:02:26;;;;;;;2.60;2.40;;;13.40;77.80;;;;;;985537;144;27378;-73
2022/05/22 04:04:52;;;;;;;2.43;2.23;;;13.40;78.70;;;;;;986758;144;27415;-73
2022/05/22 04:07:19;;;;;;;3.80;2.00;;;13.40;79.00;;;;;;987001;144;27283;-74
2022/05/22 04:09:46;;;;;;;2.53;2.00;;;13.50;79.30;;;;;;986381;144;27307;-73
2022/05/22 04:12:13;;;;;;;2.60;2.40;;;13.60;79.50;;;;;;984196;144;27824;-73
2022/05/22 04:14:39;;;;;;;2.13;1.93;;;13.60;79.70;;;;;;983883;142;27283;-73
2022/05/22 04:17:05;;;;;;;2.20;1.80;;;13.70;79.70;;;;;;983896;144;27213;-73
2022/05/22 04:19:32;;;;;;;2.17;1.97;;;13.70;79.80;;;;;;985051;142;27268;-74
2022/05/22 04:21:58;;;;;;;2.60;2.40;;;13.80;80.00;;;;;;984333;142;27421;-73
2022/05/22 04:27:10;;;;;;;4.80;2.90;;;13.90;80.20;;;;;;985613;143;27321;-73
2022/05/22 04:29:36;;;;;;;4.17;2.50;;;14.00;80.20;;;;;;984559;144;27363;-72
2022/05/22 04:32:03;;;;;;;4.50;2.33;;;14.10;80.40;;;;;;985034;142;27292;-73
2022/05/22 04:34:30;;;;;;;3.13;2.33;;;14.20;80.70;;;;;;985140;144;27317;-74
2022/05/22 04:36:57;;;;;;;1.93;1.60;;;14.30;80.70;;;;;;987469;144;27315;-73
2022/05/22 04:39:23;;;;;;;3.03;2.10;;;14.40;80.70;;;;;;984289;144;27667;-73
2022/05/22 04:41:49;;;;;;;2.73;2.47;;;14.50;80.50;;;;;;984175;144;27299;-73
2022/05/22 04:44:16;;;;;;;2.53;2.00;;;14.60;80.30;;;;;;983644;144;27285;-73
2022/05/22 04:46:43;;;;;;;2.20;2.00;;;14.70;80.40;;;;;;983697;144;27321;-74
2022/05/22 04:49:09;;;;;;;2.27;2.17;;;14.80;80.70;;;;;;984022;144;27311;-73
2022/05/22 04:51:36;;;;;;;2.60;2.40;;;15.00;81.40;;;;;;984074;143;27380;-73
2022/05/22 04:54:02;;;;;;;2.40;2.20;;;15.20;82.50;;;;;;984958;144;27309;-74
2022/05/22 04:56:29;;;;;;;2.37;2.12;;;15.50;83.70;;;;;;986282;144;27644;-73
2022/05/22 04:58:55;;;;;;;2.20;2.00;;;15.80;84.40;;;;;;984931;144;27323;-74
2022/05/22 05:01:22;;;;;;;2.27;2.00;;;16.20;85.60;;;;;;984819;144;27384;-75
2022/05/22 05:03:49;;;;;;;2.22;2.02;;;16.80;86.30;;;;;;984754;144;27371;-73
2022/05/22 05:06:15;;;;;;;2.17;1.77;;;17.40;86.40;;;;;;986272;143;27268;-73
2022/05/22 05:08:42;;;;;;;2.15;1.40;;;18.10;86.80;;;;;;986127;144;27303;-73
2022/05/22 05:11:09;;;;;;;2.50;1.50;;;18.90;86.20;;;;;;984848;144;27283;-74
2022/05/22 05:13:35;;;;;;;1.57;1.37;;;19.70;85.00;;;;;;985463;144;27283;-73
2022/05/22 05:16:04;;;;;;;1.60;1.50;;;20.50;82.80;;;;;;985983;144;27704;-73
2022/05/22 05:18:31;;;;;;;1.40;1.30;;;21.40;80.50;;;;;;985041;144;27303;-74
2022/05/22 05:20:58;;;;;;;1.90;1.40;;;22.40;77.80;;;;;;985258;143;27357;-74
2022/05/22 05:23:24;;;;;;;1.95;1.17;;;23.20;75.20;;;;;;986186;144;27396;-74
2022/05/22 05:25:51;;;;;;;1.95;1.30;;;24.10;72.60;;;;;;986038;144;27291;-75
2022/05/22 05:28:17;;;;;;;4.10;1.45;;;24.90;70.10;;;;;;986197;144;27304;-74
2022/05/22 05:30:44;;;;;;;1.10;1.10;;;25.70;67.90;;;;;;984112;143;28212;-74
2022/05/22 05:33:10;;;;;;;1.98;1.32;;;26.50;65.90;;;;;;984733;144;27688;-74
2022/05/22 05:35:37;;;;;;;1.52;1.20;;;27.20;64.80;;;;;;983982;144;27348;-74
2022/05/22 05:38:04;;;;;;;1.40;1.30;;;28.00;62.00;;;;;;986312;144;27264;-75
2022/05/22 05:40:30;;;;;;;1.20;1.10;;;28.70;60.00;;;;;;983966;144;27846;-73
2022/05/22 05:42:58;;;;;;;1.55;0.93;;;29.30;58.50;;;;;;985228;144;27325;-74
2022/05/22 05:45:23;;;;;;;1.42;1.20;;;30.00;57.50;;;;;;986275;144;28009;-73
2022/05/22 05:47:50;;;;;;;1.72;1.30;;;30.60;56.30;;;;;;983829;144;27310;-72
2022/05/22 05:50:17;;;;;;;1.40;1.30;;;31.20;55.30;;;;;;984949;144;27377;-73
2022/05/22 05:52:43;;;;;;;3.37;1.45;;;31.80;54.40;;;;;;984229;143;27335;-73
2022/05/22 05:55:10;;;;;;;1.20;1.10;;;32.40;53.50;;;;;;986584;144;27393;-74
2022/05/22 05:57:36;;;;;;;1.42;1.17;;;32.90;52.40;;;;;;983470;143;27352;-72
2022/05/22 06:00:04;;;;;;;1.65;1.55;;;33.40;51.30;;;;;;986697;144;27421;-73
2022/05/22 06:02:30;;;;;;;1.52;1.15;;;33.90;50.50;;;;;;986636;144;27334;-72
2022/05/22 06:04:56;;;;;;;1.75;1.02;;;34.30;49.70;;;;;;986749;144;27247;-73
2022/05/22 06:07:23;;;;;;;1.52;0.90;;;34.70;48.70;;;;;;986356;144;27417;-73
2022/05/22 06:09:49;;;;;;;1.02;0.93;;;35.00;48.00;;;;;;983862;144;27597;-73
2022/05/22 06:12:16;;;;;;;1.62;1.02;;;35.40;47.30;;;;;;985973;144;26202;-73
2022/05/22 06:14:42;;;;;;;1.02;0.93;;;35.70;46.50;;;;;;984318;144;27541;-72
2022/05/22 06:17:09;;;;;;;2.58;1.40;;;36.10;45.80;;;;;;986486;144;26197;-74
2022/05/22 06:22:23;;;;;;;1.00;0.85;;;36.60;44.50;;;;;;984701;144;26413;-73
2022/05/22 06:24:50;;;;;;;2.72;1.07;;;36.90;43.90;;;;;;987583;144;26201;-73
2022/05/22 06:27:17;;;;;;;1.27;1.10;;;37.20;43.20;;;;;;985488;144;26278;-72
2022/05/22 06:29:43;;;;;;;1.90;1.17;;;37.50;42.60;;;;;;984030;142;26130;-73
2022/05/22 06:32:13;;;;;;;1.25;1.00;;;37.70;42.40;;;;;;985884;143;26219;-73
2022/05/22 06:34:41;;;;;;;1.27;1.17;;;37.90;41.90;;;;;;985385;143;26257;-72
2022/05/22 06:37:06;;;;;;;1.55;1.30;;;38.30;41.70;;;;;;986069;144;26241;-73
2022/05/22 06:42:23;;;;;;;2.12;1.15;;;38.80;40.20;;;;;;985747;144;27322;-73
2022/05/22 06:44:53;;;;;;;1.80;1.15;;;39.10;39.70;;;;;;987884;144;26208;-73
2022/05/22 06:47:19;;;;;;;1.17;0.98;;;39.20;39.40;;;;;;985330;144;26252;-73
2022/05/22 06:49:46;;;;;;;2.27;1.17;;;39.40;39.00;;;;;;985425;142;26656;-73
2022/05/22 06:52:12;;;;;;;1.20;1.10;;;39.60;38.40;;;;;;987656;144;27332;-73
2022/05/22 06:54:39;;;;;;;1.50;0.90;;;39.90;37.50;;;;;;985163;144;26190;-73
2022/05/22 06:57:06;;;;;;;1.10;1.00;;;40.10;37.50;;;;;;985958;144;26170;-73
2022/05/22 06:59:32;;;;;;;0.80;0.75;;;40.40;37.00;;;;;;980166;144;26331;-73
2022/05/22 07:02:00;;;;;;;2.00;0.93;;;40.70;36.60;;;;;;977306;146;27728;-74
2022/05/22 07:04:25;;;;;;;1.65;1.00;;;41.00;36.50;;;;;;976564;144;26778;-73
2022/05/22 07:06:52;;;;;;;1.72;1.12;;;41.30;35.90;;;;;;976194;146;26299;-74
2022/05/22 07:09:18;;;;;;;1.20;1.05;;;41.50;35.70;;;;;;978044;144;26238;-73
2022/05/22 07:11:45;;;;;;;2.15;0.93;;;41.90;34.50;;;;;;976718;144;26294;-75
2022/05/22 07:14:13;;;;;;;2.27;1.17;;;42.10;33.80;;;;;;977162;144;26342;-74
2022/05/22 07:16:38;;;;;;;1.20;1.10;;;42.30;33.40;;;;;;976625;144;26198;-74
2022/05/22 07:19:05;;;;;;;3.02;0.98;;;42.50;33.30;;;;;;977495;144;26203;-73
2022/05/22 07:21:31;;;;;;;0.98;0.85;;;42.70;32.90;;;;;;975929;144;26295;-75
2022/05/22 07:24:01;;;;;;;3.17;1.30;;;43.10;32.30;;;;;;977161;144;26191;-74
2022/05/22 07:26:26;;;;;;;1.42;1.07;;;43.20;31.80;;;;;;976845;146;26355;-73
2022/05/22 07:28:51;;;;;;;2.27;0.98;;;43.40;31.50;;;;;;977645;144;26314;-73
2022/05/22 07:31:18;;;;;;;1.12;0.88;;;43.60;31.30;;;;;;975851;146;26651;-75
2022/05/22 07:33:44;;;;;;;0.95;0.88;;;43.90;30.80;;;;;;976747;146;26298;-74
2022/05/22 07:36:11;;;;;;;2.15;1.00;;;44.10;30.50;;;;;;977102;146;26128;-74
2022/05/22 07:38:38;;;;;;;1.27;0.95;;;44.20;30.00;;;;;;978295;146;26222;-75
2022/05/22 07:41:04;;;;;;;2.27;1.00;;;44.40;29.70;;;;;;976788;144;26230;-73
2022/05/22 07:43:31;;;;;;;1.85;1.10;;;44.60;29.90;;;;;;978171;144;28469;-73
2022/05/22 07:45:57;;;;;;;1.40;1.00;;;44.70;29.40;;;;;;975720;146;26199;-73
2022/05/22 07:48:24;;;;;;;1.77;1.07;;;44.80;29.10;;;;;;977726;144;26170;-73
2022/05/22 07:50:57;;;;;;;0.82;0.82;;;45.00;28.90;;;;;;977982;146;26518;-75
2022/05/22 07:53:23;;;;;;;1.95;1.05;;;45.00;28.40;;;;;;978727;146;26388;-73
2022/05/22 07:55:49;;;;;;;1.30;0.90;;;45.20;28.20;;;;;;977761;146;26218;-73
2022/05/22 07:58:16;;;;;;;2.50;1.40;;;45.20;27.60;;;;;;976782;146;26191;-73
2022/05/22 08:00:43;;;;;;;4.22;1.20;;;45.20;27.50;;;;;;979182;144;26318;-74
2022/05/22 08:03:09;;;;;;;1.02;0.75;;;45.30;27.40;;;;;;977132;146;26202;-75
2022/05/22 08:05:36;;;;;;;1.40;0.82;;;45.40;27.40;;;;;;976732;146;26362;-74
2022/05/22 08:08:02;;;;;;;1.80;0.90;;;45.50;27.20;;;;;;978075;146;26148;-73
2022/05/22 08:10:29;;;;;;;1.17;0.80;;;45.60;27.10;;;;;;977538;146;26571;-75
2022/05/22 08:12:55;;;;;;;1.17;0.72;;;45.70;26.90;;;;;;977061;144;26218;-74
2022/05/22 08:15:22;;;;;;;3.70;1.12;;;45.70;26.80;;;;;;978310;146;26222;-75
2022/05/22 08:17:49;;;;;;;1.10;0.90;;;45.70;26.80;;;;;;977547;144;26355;-73
2022/05/22 08:20:15;;;;;;;2.20;0.90;;;45.80;26.60;;;;;;976808;146;26597;-73
2022/05/22 08:22:45;;;;;;;1.32;0.90;;;45.90;26.20;;;;;;977407;144;26238;-73
2022/05/22 08:25:08;;;;;;;2.15;1.05;;;45.90;26.00;;;;;;976085;146;26148;-73
2022/05/22 08:27:35;;;;;;;1.32;0.78;;;45.90;26.00;;;;;;978611;144;26689;-74
2022/05/22 08:30:02;;;;;;;2.70;1.07;;;45.80;25.80;;;;;;978611;146;26214;-76
2022/05/22 08:32:28;;;;;;;3.40;0.95;;;45.70;25.90;;;;;;977018;144;26247;-73
2022/05/22 08:34:55;;;;;;;4.70;1.27;;;45.80;25.60;;;;;;975846;146;26182;-73
2022/05/22 08:37:22;;;;;;;1.05;0.80;;;45.90;26.00;;;;;;974907;146;26186;-73
2022/05/22 08:39:48;;;;;;;1.05;0.75;;;46.10;25.70;;;;;;977386;146;26217;-73
2022/05/22 08:42:15;;;;;;;1.42;0.90;;;46.20;25.60;;;;;;979084;144;26319;-75
2022/05/22 08:44:41;;;;;;;1.75;0.85;;;46.40;25.40;;;;;;977254;146;26317;-73
2022/05/22 08:47:23;;;;;;;1.20;0.85;;;46.50;25.10;;;;;;978605;146;26238;-73
2022/05/22 08:49:50;;;;;;;1.12;0.70;;;46.70;25.10;;;;;;976472;144;26127;-72
2022/05/22 08:52:41;;;;;;;0.90;0.60;;;46.70;25.20;;;;;;974618;146;26233;-74
2022/05/22 08:55:10;;;;;;;2.05;0.78;;;46.90;24.90;;;;;;976657;144;26271;-74
2022/05/22 09:00:24;;;;;;;1.22;0.75;;;47.10;24.40;;;;;;975319;144;26403;-73
2022/05/22 09:02:59;;;;;;;3.05;1.00;;;47.20;24.10;;;;;;973931;143;26189;-73
2022/05/22 09:05:26;;;;;;;0.95;0.60;;;47.00;23.70;;;;;;975037;143;26150;-74
2022/05/22 09:07:55;;;;;;;1.47;0.80;;;46.90;23.80;;;;;;974483;146;26292;-74
2022/05/22 09:10:34;;;;;;;1.00;0.70;;;46.70;23.80;;;;;;973538;143;26334;-73
2022/05/22 09:13:09;;;;;;;2.25;0.90;;;46.40;23.70;;;;;;976558;146;26226;-73
2022/05/22 09:15:49;;;;;;;2.27;1.07;;;46.20;23.80;;;;;;973311;145;26218;-73
2022/05/22 09:18:21;;;;;;;1.25;0.82;;;46.00;23.50;;;;;;974560;145;26487;-74
2022/05/22 09:20:56;;;;;;;1.98;0.85;;;45.80;23.40;;;;;;966580;146;26164;-74
2022/05/22 09:23:43;;;;;;;1.30;0.62;;;45.60;23.50;;;;;;974766;145;26340;-72
2022/05/22 09:26:10;;;;;;;1.40;0.80;;;45.40;23.60;;;;;;976396;145;26251;-72
2022/05/22 09:28:55;;;;;;;1.77;0.98;;;45.30;23.60;;;;;;973711;146;26217;-73
2022/05/22 09:31:43;;;;;;;1.37;0.72;;;45.30;23.40;;;;;;972741;146;26163;-73
2022/05/22 09:34:10;;;;;;;1.30;0.80;;;45.30;23.50;;;;;;975621;146;26287;-73
2022/05/22 09:36:45;;;;;;;1.50;0.72;;;45.40;23.60;;;;;;972257;145;26281;-73
2022/05/22 09:39:39;;;;;;;1.62;0.80;;;45.50;23.40;;;;;;973711;146;26265;-73
2022/05/22 09:42:20;;;;;;;0.80;0.80;;;45.50;22.90;;;;;;974584;146;26233;-74
2022/05/22 09:44:53;;;;;;;1.35;0.57;;;45.70;23.50;;;;;;975447;146;26187;-73
2022/05/22 09:47:29;;;;;;;1.85;0.80;;;45.70;23.20;;;;;;977330;146;26218;-74
2022/05/22 09:50:13;;;;;;;1.32;0.90;;;45.60;23.10;;;;;;976265;146;26312;-74
2022/05/22 09:52:40;;;;;;;1.30;0.65;;;45.50;23.40;;;;;;974806;146;26257;-75
2022/05/22 09:55:27;;;;;;;0.90;0.70;;;45.20;22.90;;;;;;973522;146;26250;-73
2022/05/22 09:58:09;;;;;;;1.35;0.90;;;44.90;22.90;;;;;;975736;146;26171;-73
2022/05/22 10:00:41;;;;;;;1.27;0.85;;;44.50;23.00;;;;;;976546;146;26308;-73
2022/05/22 10:03:26;;;;;;;1.17;0.85;;;44.10;22.60;;;;;;973924;146;26198;-74
2022/05/22 10:06:10;;;;;;;2.35;0.65;;;43.50;22.70;;;;;;974546;146;26352;-74
2022/05/22 10:08:37;;;;;;;1.87;1.05;;;42.90;22.80;;;;;;965199;146;26246;-73
2022/05/22 10:11:25;;;;;;;2.37;1.00;;;42.20;22.80;;;;;;975996;146;26194;-73
2022/05/22 10:13:55;;;;;;;1.07;0.70;;;41.60;23.20;;;;;;975999;146;27307;-73
2022/05/22 10:16:58;;;;;;;1.65;0.90;;;40.90;23.40;;;;;;974578;146;26189;-72
2022/05/22 10:19:46;;;;;;;2.20;1.05;;;40.30;23.40;;;;;;973426;146;26222;-73
2022/05/22 10:22:22;;;;;;;0.82;0.68;;;39.70;23.60;;;;;;974656;146;26222;-74
2022/05/22 10:25:22;;;;;;;2.08;1.00;;;39.00;23.80;;;;;;974636;146;27297;-73
2022/05/22 10:28:07;;;;;;;2.77;1.07;;;38.40;24.10;;;;;;973950;145;27330;-73
2022/05/22 10:30:42;;;;;;;2.25;1.05;;;37.70;24.60;;;;;;973875;146;27286;-74
2022/05/22 10:33:09;;;;;;;1.57;0.80;;;37.10;24.90;;;;;;974504;143;27306;-73
2022/05/22 10:35:44;;;;;;;2.45;1.17;;;36.70;24.80;;;;;;973746;145;27422;-73
2022/05/22 10:38:17;;;;;;;2.15;1.07;;;36.10;24.80;;;;;;976261;146;27315;-72
2022/05/22 10:43:34;;;;;;;1.62;0.93;;;35.10;25.20;;;;;;975962;146;27438;-74
2022/05/22 10:46:01;;;;;;;2.15;1.00;;;34.40;25.50;;;;;;974382;145;27326;-73
2022/05/22 10:48:28;;;;;;;2.85;1.15;;;33.80;25.70;;;;;;974796;146;27359;-72
2022/05/22 10:50:56;;;;;;;1.70;0.95;;;33.20;26.00;;;;;;975353;145;27269;-72
2022/05/22 10:53:35;;;;;;;1.22;0.72;;;32.70;26.30;;;;;;972493;146;27260;-72
2022/05/22 10:56:13;;;;;;;1.12;0.90;;;32.20;26.80;;;;;;974554;144;27338;-74
2022/05/22 10:58:40;;;;;;;1.17;1.07;;;31.70;27.10;;;;;;975741;145;27414;-73
2022/05/22 11:01:06;;;;;;;0.85;0.85;;;31.30;27.60;;;;;;977648;144;27344;-72
2022/05/22 11:03:33;;;;;;;0.70;0.65;;;31.00;28.00;;;;;;982718;142;27396;-73
2022/05/22 11:06:00;;;;;;;0.80;0.80;;;30.70;28.20;;;;;;984972;142;27297;-72
2022/05/22 11:08:28;;;;;;;1.10;0.95;;;30.50;28.40;;;;;;986417;144;27366;-74
2022/05/22 11:10:53;;;;;;;2.30;1.10;;;30.40;28.70;;;;;;982984;144;27288;-72
2022/05/22 11:13:23;;;;;;;2.08;0.98;;;30.20;29.00;;;;;;986776;142;27283;-72
2022/05/22 11:15:49;;;;;;;1.50;1.07;;;30.10;29.00;;;;;;983792;144;27399;-73
2022/05/22 11:18:22;;;;;;;0.95;0.80;;;30.00;29.10;;;;;;986828;142;27261;-73
2022/05/22 11:20:51;;;;;;;1.90;0.82;;;29.90;29.50;;;;;;984220;144;27331;-74
2022/05/22 11:23:44;;;;;;;3.02;0.90;;;29.90;29.50;;;;;;984744;144;28579;-72
2022/05/22 11:26:32;;;;;;;2.67;0.98;;;29.90;29.60;;;;;;984583;144;27300;-72
2022/05/22 11:29:01;;;;;;;1.22;0.90;;;29.90;29.60;;;;;;955413;142;27336;-75
2022/05/22 11:31:36;;;;;;;2.58;1.20;;;30.00;29.70;;;;;;980536;142;27333;-76
2022/05/22 11:34:18;;;;;;;1.10;1.00;;;30.00;29.70;;;;;;985096;144;27316;-74
2022/05/22 11:36:45;;;;;;;1.72;0.98;;;30.10;29.60;;;;;;983790;144;27290;-74
2022/05/22 11:39:19;;;;;;;1.22;0.68;;;30.10;29.80;;;;;;984861;144;27357;-74
2022/05/22 11:41:55;;;;;;;2.70;1.22;;;30.10;30.00;;;;;;986303;144;27308;-73
2022/05/22 11:44:37;;;;;;;1.60;1.20;;;30.10;29.70;;;;;;986560;142;27300;-74
2022/05/22 11:47:18;;;;;;;0.72;0.72;;;30.10;29.60;;;;;;983272;144;27328;-73
2022/05/22 11:50:03;;;;;;;1.15;0.88;;;30.00;29.90;;;;;;984080;142;27296;-73
2022/05/22 11:53:07;;;;;;;1.55;0.90;;;29.90;29.80;;;;;;984630;144;27359;-74
2022/05/22 11:55:42;;;;;;;3.33;1.05;;;29.80;29.90;;;;;;986156;144;27332;-74
2022/05/22 11:58:18;;;;;;;2.33;1.85;;;29.80;30.20;;;;;;986033;142;27284;-76
2022/05/22 12:00:44;;;;;;;1.67;0.93;;;29.80;30.10;;;;;;985393;144;27326;-76
2022/05/22 12:03:26;;;;;;;1.42;0.93;;;29.80;30.20;;;;;;974278;144;27490;-74
2022/05/22 12:06:05;;;;;;;2.08;1.30;;;29.80;30.20;;;;;;974123;146;27321;-74
2022/05/22 12:08:34;;;;;;;0.93;0.90;;;29.70;30.20;;;;;;975049;145;27318;-73
2022/05/22 12:11:18;;;;;;;1.85;1.10;;;29.60;30.10;;;;;;974372;146;27368;-75
2022/05/22 12:13:51;;;;;;;1.82;0.88;;;29.50;30.10;;;;;;971614;146;27322;-74
2022/05/22 12:16:17;;;;;;;1.15;0.72;;;29.30;30.10;;;;;;974068;146;27248;-73
2022/05/22 12:19:09;;;;;;;2.00;1.50;;;29.10;30.30;;;;;;974904;146;27271;-73
2022/05/22 12:22:03;;;;;;;3.33;1.40;;;28.90;30.30;;;;;;974271;146;27393;-75
2022/05/22 12:24:35;;;;;;;2.55;0.90;;;28.70;30.40;;;;;;975793;145;27354;-74
2022/05/22 12:27:02;;;;;;;1.15;1.05;;;28.40;30.60;;;;;;974468;146;27392;-74
2022/05/22 12:29:32;;;;;;;1.87;1.12;;;28.30;31.00;;;;;;972888;146;27390;-75
2022/05/22 12:32:01;;;;;;;1.05;1.00;;;28.20;31.10;;;;;;970971;146;27339;-75
2022/05/22 12:34:36;;;;;;;1.20;1.10;;;28.10;31.60;;;;;;974902;146;27329;-74
2022/05/22 12:37:03;;;;;;;1.47;1.10;;;28.00;31.70;;;;;;974052;146;27392;-73
2022/05/22 12:39:29;;;;;;;1.57;1.20;;;28.00;31.80;;;;;;972752;145;27310;-74
2022/05/22 12:42:02;;;;;;;1.10;1.00;;;28.00;31.90;;;;;;974291;146;27415;-74
2022/05/22 12:44:28;;;;;;;2.10;0.85;;;27.90;32.00;;;;;;974733;146;27314;-74
2022/05/22 12:46:55;;;;;;;1.45;1.00;;;28.00;32.20;;;;;;975150;146;27352;-74
2022/05/22 12:49:23;;;;;;;1.57;1.00;;;28.00;31.80;;;;;;975137;145;27372;-74
2022/05/22 12:52:00;;;;;;;1.20;1.02;;;28.00;31.70;;;;;;974372;146;27325;-75
2022/05/22 12:54:27;;;;;;;1.50;1.20;;;28.00;31.90;;;;;;974578;145;27406;-74
2022/05/22 12:56:53;;;;;;;1.72;1.30;;;28.00;32.20;;;;;;975426;145;27302;-74
2022/05/22 12:59:23;;;;;;;1.30;0.82;;;28.00;32.30;;;;;;974563;145;27787;-73
2022/05/22 13:01:49;;;;;;;2.42;1.32;;;27.90;32.50;;;;;;975505;144;27379;-73
2022/05/22 13:04:16;;;;;;;1.72;1.02;;;27.90;32.70;;;;;;974790;146;27257;-75
2022/05/22 13:06:48;;;;;;;1.22;0.90;;;27.80;32.60;;;;;;973606;146;27278;-75
2022/05/22 13:09:33;;;;;;;1.47;1.37;;;27.80;32.70;;;;;;975774;146;28450;-74
2022/05/22 13:12:03;;;;;;;1.62;1.00;;;27.80;32.80;;;;;;974715;145;27330;-74
2022/05/22 13:14:30;;;;;;;2.00;1.00;;;27.70;32.70;;;;;;971819;146;27334;-74
2022/05/22 13:16:56;;;;;;;0.93;0.70;;;27.70;32.80;;;;;;973791;146;27404;-74
2022/05/22 13:19:23;;;;;;;1.55;1.10;;;27.60;33.10;;;;;;974333;143;27250;-74
2022/05/22 13:21:49;;;;;;;1.27;1.15;;;27.50;33.00;;;;;;974089;146;27338;-74